Terminal Aerodrome Forecast
Issued by NWS

Home | Current Version | Previous Version | Text Only | Print | Product List | Glossary On
Versions: 1 2 3 4 5 6 7 8 9 10 11 12 13
000
FTUS45 KABQ 302300
TAFSAF
TAF
KSAF 302340Z 0100/0124 25014G22KT P6SM SKC
     FM010200 31006KT P6SM SKC
     FM011100 36009KT P6SM SKC
     FM011800 26010G18KT P6SM SCT150
     FM012100 25015G24KT P6SM SCT120=

USA.gov is the U.S. government's official web portal to all federal, state and local government web resources and services.